sensor_id;sensor_type;location;lat;lon;timestamp;P1;durP1;ratioP1;P2;durP2;ratioP2
22097;SDS011;11215;51.938;8.464;2023-06-10T00:02:07;7.73;;;5.33;;
22097;SDS011;11215;51.938;8.464;2023-06-10T00:04:34;6.20;;;5.30;;
22097;SDS011;11215;51.938;8.464;2023-06-10T00:07:02;5.60;;;5.13;;
22097;SDS011;11215;51.938;8.464;2023-06-10T00:09:29;6.27;;;5.10;;
22097;SDS011;11215;51.938;8.464;2023-06-10T00:11:55;7.03;;;4.90;;
22097;SDS011;11215;51.938;8.464;2023-06-10T00:14:20;7.07;;;5.33;;
22097;SDS011;11215;51.938;8.464;2023-06-10T00:16:46;6.67;;;4.87;;
22097;SDS011;11215;51.938;8.464;2023-06-10T00:19:12;5.23;;;4.73;;
22097;SDS011;11215;51.938;8.464;2023-06-10T00:21:39;8.57;;;4.67;;
22097;SDS011;11215;51.938;8.464;2023-06-10T00:24:08;6.60;;;5.30;;
22097;SDS011;11215;51.938;8.464;2023-06-10T00:26:38;5.63;;;4.73;;
22097;SDS011;11215;51.938;8.464;2023-06-10T00:29:04;5.60;;;4.80;;
22097;SDS011;11215;51.938;8.464;2023-06-10T00:31:30;5.07;;;4.57;;
22097;SDS011;11215;51.938;8.464;2023-06-10T00:33:56;6.33;;;4.80;;
22097;SDS011;11215;51.938;8.464;2023-06-10T00:36:23;5.80;;;4.80;;
22097;SDS011;11215;51.938;8.464;2023-06-10T00:38:49;6.03;;;4.50;;
22097;SDS011;11215;51.938;8.464;2023-06-10T00:41:15;5.00;;;4.50;;
22097;SDS011;11215;51.938;8.464;2023-06-10T00:43:41;5.27;;;4.77;;
22097;SDS011;11215;51.938;8.464;2023-06-10T00:46:07;6.57;;;4.67;;
22097;SDS011;11215;51.938;8.464;2023-06-10T00:48:33;5.27;;;4.27;;
22097;SDS011;11215;51.938;8.464;2023-06-10T00:50:59;6.47;;;4.80;;
22097;SDS011;11215;51.938;8.464;2023-06-10T00:53:26;5.43;;;4.03;;
22097;SDS011;11215;51.938;8.464;2023-06-10T00:55:52;5.83;;;4.80;;
22097;SDS011;11215;51.938;8.464;2023-06-10T00:58:18;5.60;;;4.27;;
22097;SDS011;11215;51.938;8.464;2023-06-10T01:00:44;5.70;;;5.10;;
22097;SDS011;11215;51.938;8.464;2023-06-10T01:03:11;5.30;;;4.70;;
22097;SDS011;11215;51.938;8.464;2023-06-10T01:05:38;5.50;;;4.20;;
22097;SDS011;11215;51.938;8.464;2023-06-10T01:09:06;6.73;;;4.60;;
22097;SDS011;11215;51.938;8.464;2023-06-10T01:11:13;5.00;;;3.97;;
22097;SDS011;11215;51.938;8.464;2023-06-10T01:13:46;5.90;;;4.60;;
22097;SDS011;11215;51.938;8.464;2023-06-10T01:16:16;5.90;;;4.27;;
22097;SDS011;11215;51.938;8.464;2023-06-10T01:18:44;5.73;;;4.47;;
22097;SDS011;11215;51.938;8.464;2023-06-10T01:21:18;4.20;;;3.80;;
22097;SDS011;11215;51.938;8.464;2023-06-10T01:23:49;6.57;;;4.30;;
22097;SDS011;11215;51.938;8.464;2023-06-10T01:26:17;8.33;;;4.37;;
22097;SDS011;11215;51.938;8.464;2023-06-10T01:29:04;4.30;;;3.70;;
22097;SDS011;11215;51.938;8.464;2023-06-10T01:34:13;4.37;;;3.90;;
22097;SDS011;11215;51.938;8.464;2023-06-10T01:36:41;5.87;;;4.17;;
22097;SDS011;11215;51.938;8.464;2023-06-10T01:39:12;4.47;;;3.73;;
22097;SDS011;11215;51.938;8.464;2023-06-10T01:41:39;4.23;;;3.83;;
22097;SDS011;11215;51.938;8.464;2023-06-10T01:44:05;5.63;;;4.03;;
22097;SDS011;11215;51.938;8.464;2023-06-10T01:46:31;4.60;;;4.10;;
22097;SDS011;11215;51.938;8.464;2023-06-10T01:48:57;4.30;;;3.80;;
22097;SDS011;11215;51.938;8.464;2023-06-10T01:51:23;5.63;;;4.33;;
22097;SDS011;11215;51.938;8.464;2023-06-10T01:53:48;5.30;;;4.37;;
22097;SDS011;11215;51.938;8.464;2023-06-10T01:56:14;4.43;;;3.90;;
22097;SDS011;11215;51.938;8.464;2023-06-10T01:58:44;4.80;;;4.30;;
22097;SDS011;11215;51.938;8.464;2023-06-10T02:01:10;4.93;;;3.93;;
22097;SDS011;11215;51.938;8.464;2023-06-10T02:03:36;7.03;;;4.40;;
22097;SDS011;11215;51.938;8.464;2023-06-10T02:06:02;4.80;;;4.30;;
22097;SDS011;11215;51.938;8.464;2023-06-10T02:08:28;4.90;;;4.37;;
22097;SDS011;11215;51.938;8.464;2023-06-10T02:10:54;6.27;;;4.07;;
22097;SDS011;11215;51.938;8.464;2023-06-10T02:13:20;4.83;;;3.67;;
22097;SDS011;11215;51.938;8.464;2023-06-10T02:15:46;4.87;;;4.03;;
22097;SDS011;11215;51.938;8.464;2023-06-10T02:18:12;5.53;;;4.17;;
22097;SDS011;11215;51.938;8.464;2023-06-10T02:20:38;5.77;;;4.67;;
22097;SDS011;11215;51.938;8.464;2023-06-10T02:23:04;4.50;;;3.80;;
22097;SDS011;11215;51.938;8.464;2023-06-10T02:25:30;4.40;;;3.70;;
22097;SDS011;11215;51.938;8.464;2023-06-10T02:27:56;3.97;;;3.53;;
22097;SDS011;11215;51.938;8.464;2023-06-10T02:30:21;5.27;;;4.03;;
22097;SDS011;11215;51.938;8.464;2023-06-10T02:32:47;4.93;;;3.97;;
22097;SDS011;11215;51.938;8.464;2023-06-10T02:35:14;5.83;;;3.97;;
22097;SDS011;11215;51.938;8.464;2023-06-10T02:37:40;4.23;;;3.50;;
22097;SDS011;11215;51.938;8.464;2023-06-10T02:40:06;5.23;;;3.90;;
22097;SDS011;11215;51.938;8.464;2023-06-10T02:42:33;5.53;;;4.03;;
22097;SDS011;11215;51.938;8.464;2023-06-10T02:44:59;4.93;;;4.10;;
22097;SDS011;11215;51.938;8.464;2023-06-10T02:47:26;7.77;;;4.07;;
22097;SDS011;11215;51.938;8.464;2023-06-10T02:49:52;3.90;;;3.50;;
22097;SDS011;11215;51.938;8.464;2023-06-10T02:52:18;7.00;;;4.20;;
22097;SDS011;11215;51.938;8.464;2023-06-10T02:54:47;6.13;;;4.10;;
22097;SDS011;11215;51.938;8.464;2023-06-10T02:57:13;7.23;;;4.27;;
22097;SDS011;11215;51.938;8.464;2023-06-10T02:59:40;5.30;;;4.43;;
22097;SDS011;11215;51.938;8.464;2023-06-10T03:02:06;5.40;;;4.23;;
22097;SDS011;11215;51.938;8.464;2023-06-10T03:04:32;6.23;;;4.00;;
22097;SDS011;11215;51.938;8.464;2023-06-10T03:06:59;4.80;;;3.97;;
22097;SDS011;11215;51.938;8.464;2023-06-10T03:09:28;5.13;;;3.97;;
22097;SDS011;11215;51.938;8.464;2023-06-10T03:11:54;8.40;;;4.73;;
22097;SDS011;11215;51.938;8.464;2023-06-10T03:14:20;4.87;;;4.17;;
22097;SDS011;11215;51.938;8.464;2023-06-10T03:16:46;4.67;;;3.60;;
22097;SDS011;11215;51.938;8.464;2023-06-10T03:19:12;4.70;;;4.00;;
22097;SDS011;11215;51.938;8.464;2023-06-10T03:21:38;4.73;;;4.17;;
22097;SDS011;11215;51.938;8.464;2023-06-10T03:24:04;5.73;;;3.73;;
22097;SDS011;11215;51.938;8.464;2023-06-10T03:26:30;4.90;;;4.03;;
22097;SDS011;11215;51.938;8.464;2023-06-10T03:28:56;4.20;;;3.70;;
22097;SDS011;11215;51.938;8.464;2023-06-10T03:31:22;4.27;;;3.70;;
22097;SDS011;11215;51.938;8.464;2023-06-10T03:33:49;4.40;;;3.97;;
22097;SDS011;11215;51.938;8.464;2023-06-10T03:36:16;8.07;;;4.00;;
22097;SDS011;11215;51.938;8.464;2023-06-10T03:38:41;5.23;;;4.27;;
22097;SDS011;11215;51.938;8.464;2023-06-10T03:41:07;4.73;;;4.20;;
22097;SDS011;11215;51.938;8.464;2023-06-10T03:43:33;6.13;;;4.10;;
22097;SDS011;11215;51.938;8.464;2023-06-10T03:45:59;5.20;;;4.40;;
22097;SDS011;11215;51.938;8.464;2023-06-10T03:48:24;4.80;;;4.17;;
22097;SDS011;11215;51.938;8.464;2023-06-10T03:50:50;5.43;;;4.13;;
22097;SDS011;11215;51.938;8.464;2023-06-10T03:53:17;7.03;;;4.43;;
22097;SDS011;11215;51.938;8.464;2023-06-10T03:55:43;4.70;;;4.23;;
22097;SDS011;11215;51.938;8.464;2023-06-10T03:58:10;5.23;;;4.33;;
22097;SDS011;11215;51.938;8.464;2023-06-10T04:00:38;5.07;;;4.57;;
22097;SDS011;11215;51.938;8.464;2023-06-10T04:03:07;6.37;;;4.23;;
22097;SDS011;11215;51.938;8.464;2023-06-10T04:05:34;4.30;;;3.73;;
22097;SDS011;11215;51.938;8.464;2023-06-10T04:08:00;5.20;;;3.93;;
22097;SDS011;11215;51.938;8.464;2023-06-10T04:10:26;7.30;;;4.13;;
22097;SDS011;11215;51.938;8.464;2023-06-10T04:12:52;7.43;;;4.77;;
22097;SDS011;11215;51.938;8.464;2023-06-10T04:15:18;8.60;;;4.10;;
22097;SDS011;11215;51.938;8.464;2023-06-10T04:17:44;6.53;;;4.17;;
22097;SDS011;11215;51.938;8.464;2023-06-10T04:20:10;6.30;;;4.33;;
22097;SDS011;11215;51.938;8.464;2023-06-10T04:22:36;6.93;;;4.50;;
22097;SDS011;11215;51.938;8.464;2023-06-10T04:25:02;5.73;;;4.13;;
22097;SDS011;11215;51.938;8.464;2023-06-10T04:27:28;7.40;;;4.57;;
22097;SDS011;11215;51.938;8.464;2023-06-10T04:29:55;6.97;;;4.07;;
22097;SDS011;11215;51.938;8.464;2023-06-10T04:32:21;5.20;;;3.93;;
22097;SDS011;11215;51.938;8.464;2023-06-10T04:34:46;5.33;;;3.93;;
22097;SDS011;11215;51.938;8.464;2023-06-10T04:37:12;4.90;;;4.00;;
22097;SDS011;11215;51.938;8.464;2023-06-10T04:39:38;7.03;;;3.77;;
22097;SDS011;11215;51.938;8.464;2023-06-10T04:42:04;6.77;;;4.20;;
22097;SDS011;11215;51.938;8.464;2023-06-10T04:44:30;8.43;;;4.67;;
22097;SDS011;11215;51.938;8.464;2023-06-10T04:46:57;7.53;;;4.03;;
22097;SDS011;11215;51.938;8.464;2023-06-10T04:49:22;5.63;;;4.17;;
22097;SDS011;11215;51.938;8.464;2023-06-10T04:51:48;5.70;;;4.57;;
22097;SDS011;11215;51.938;8.464;2023-06-10T04:54:14;6.10;;;3.90;;
22097;SDS011;11215;51.938;8.464;2023-06-10T04:56:40;7.53;;;3.87;;
22097;SDS011;11215;51.938;8.464;2023-06-10T04:59:06;7.13;;;4.37;;
22097;SDS011;11215;51.938;8.464;2023-06-10T05:01:32;4.57;;;3.70;;
22097;SDS011;11215;51.938;8.464;2023-06-10T05:03:57;6.17;;;4.13;;
22097;SDS011;11215;51.938;8.464;2023-06-10T05:06:23;6.78;;;4.10;;
22097;SDS011;11215;51.938;8.464;2023-06-10T05:08:49;4.07;;;3.47;;
22097;SDS011;11215;51.938;8.464;2023-06-10T05:11:15;4.93;;;3.33;;
22097;SDS011;11215;51.938;8.464;2023-06-10T05:13:41;3.70;;;3.33;;
22097;SDS011;11215;51.938;8.464;2023-06-10T05:16:09;3.70;;;3.38;;
22097;SDS011;11215;51.938;8.464;2023-06-10T05:18:34;4.68;;;3.63;;
22097;SDS011;11215;51.938;8.464;2023-06-10T05:21:01;3.63;;;3.33;;
22097;SDS011;11215;51.938;8.464;2023-06-10T05:23:27;5.78;;;3.60;;
22097;SDS011;11215;51.938;8.464;2023-06-10T05:25:53;5.60;;;3.67;;
22097;SDS011;11215;51.938;8.464;2023-06-10T05:28:19;4.22;;;3.60;;
22097;SDS011;11215;51.938;8.464;2023-06-10T05:30:45;3.92;;;3.28;;
22097;SDS011;11215;51.938;8.464;2023-06-10T05:33:11;4.75;;;3.25;;
22097;SDS011;11215;51.938;8.464;2023-06-10T05:35:37;3.55;;;3.25;;
22097;SDS011;11215;51.938;8.464;2023-06-10T05:38:02;3.85;;;3.53;;
22097;SDS011;11215;51.938;8.464;2023-06-10T05:40:28;4.70;;;3.67;;
22097;SDS011;11215;51.938;8.464;2023-06-10T05:42:54;4.00;;;3.35;;
22097;SDS011;11215;51.938;8.464;2023-06-10T05:45:20;3.53;;;3.20;;
22097;SDS011;11215;51.938;8.464;2023-06-10T05:47:46;4.07;;;3.42;;
22097;SDS011;11215;51.938;8.464;2023-06-10T05:50:12;3.45;;;3.15;;
22097;SDS011;11215;51.938;8.464;2023-06-10T05:52:38;4.07;;;3.40;;
22097;SDS011;11215;51.938;8.464;2023-06-10T05:55:06;4.15;;;3.38;;
22097;SDS011;11215;51.938;8.464;2023-06-10T05:57:33;3.67;;;3.33;;
22097;SDS011;11215;51.938;8.464;2023-06-10T05:59:59;3.42;;;2.92;;
22097;SDS011;11215;51.938;8.464;2023-06-10T06:02:24;4.22;;;3.03;;
22097;SDS011;11215;51.938;8.464;2023-06-10T06:04:50;3.08;;;2.78;;
22097;SDS011;11215;51.938;8.464;2023-06-10T06:07:16;4.50;;;3.05;;
22097;SDS011;11215;51.938;8.464;2023-06-10T06:09:42;3.70;;;3.30;;
22097;SDS011;11215;51.938;8.464;2023-06-10T06:12:08;3.50;;;2.88;;
22097;SDS011;11215;51.938;8.464;2023-06-10T06:14:36;4.15;;;2.88;;
22097;SDS011;11215;51.938;8.464;2023-06-10T06:17:06;3.97;;;2.75;;
22097;SDS011;11215;51.938;8.464;2023-06-10T06:19:32;4.18;;;2.72;;
22097;SDS011;11215;51.938;8.464;2023-06-10T06:21:59;4.53;;;3.13;;
22097;SDS011;11215;51.938;8.464;2023-06-10T06:24:24;6.28;;;3.00;;
22097;SDS011;11215;51.938;8.464;2023-06-10T06:26:50;3.28;;;2.85;;
22097;SDS011;11215;51.938;8.464;2023-06-10T06:29:16;4.28;;;3.33;;
22097;SDS011;11215;51.938;8.464;2023-06-10T06:31:43;3.33;;;2.75;;
22097;SDS011;11215;51.938;8.464;2023-06-10T06:34:08;3.15;;;2.47;;
22097;SDS011;11215;51.938;8.464;2023-06-10T06:36:34;3.65;;;3.03;;
22097;SDS011;11215;51.938;8.464;2023-06-10T06:39:00;3.83;;;2.60;;
22097;SDS011;11215;51.938;8.464;2023-06-10T06:41:26;2.90;;;2.65;;
22097;SDS011;11215;51.938;8.464;2023-06-10T06:43:53;3.80;;;3.13;;
22097;SDS011;11215;51.938;8.464;2023-06-10T06:46:19;4.65;;;2.80;;
22097;SDS011;11215;51.938;8.464;2023-06-10T06:48:46;3.83;;;3.10;;
22097;SDS011;11215;51.938;8.464;2023-06-10T06:51:12;3.42;;;2.78;;
22097;SDS011;11215;51.938;8.464;2023-06-10T06:53:38;3.38;;;2.58;;
22097;SDS011;11215;51.938;8.464;2023-06-10T06:56:09;2.65;;;2.40;;
22097;SDS011;11215;51.938;8.464;2023-06-10T06:58:35;5.53;;;3.00;;
22097;SDS011;11215;51.938;8.464;2023-06-10T07:01:01;3.20;;;2.72;;
22097;SDS011;11215;51.938;8.464;2023-06-10T07:03:27;2.78;;;2.50;;
22097;SDS011;11215;51.938;8.464;2023-06-10T07:05:53;3.05;;;2.28;;
22097;SDS011;11215;51.938;8.464;2023-06-10T07:08:19;3.50;;;2.60;;
22097;SDS011;11215;51.938;8.464;2023-06-10T07:10:45;4.50;;;2.70;;
22097;SDS011;11215;51.938;8.464;2023-06-10T07:13:11;2.38;;;2.10;;
22097;SDS011;11215;51.938;8.464;2023-06-10T07:15:38;2.78;;;2.53;;
22097;SDS011;11215;51.938;8.464;2023-06-10T07:18:04;3.53;;;2.40;;
22097;SDS011;11215;51.938;8.464;2023-06-10T07:20:30;2.60;;;2.40;;
22097;SDS011;11215;51.938;8.464;2023-06-10T07:22:56;3.03;;;2.22;;
22097;SDS011;11215;51.938;8.464;2023-06-10T07:25:21;6.43;;;2.60;;
22097;SDS011;11215;51.938;8.464;2023-06-10T07:27:47;6.00;;;2.95;;
22097;SDS011;11215;51.938;8.464;2023-06-10T07:30:13;3.35;;;2.50;;
22097;SDS011;11215;51.938;8.464;2023-06-10T07:32:39;4.45;;;2.47;;
22097;SDS011;11215;51.938;8.464;2023-06-10T07:35:08;3.13;;;2.65;;
22097;SDS011;11215;51.938;8.464;2023-06-10T07:37:36;4.15;;;2.63;;
22097;SDS011;11215;51.938;8.464;2023-06-10T07:40:02;3.50;;;2.50;;
22097;SDS011;11215;51.938;8.464;2023-06-10T07:42:27;2.65;;;2.30;;
22097;SDS011;11215;51.938;8.464;2023-06-10T07:44:53;3.53;;;2.75;;
22097;SDS011;11215;51.938;8.464;2023-06-10T07:47:19;4.53;;;2.78;;
22097;SDS011;11215;51.938;8.464;2023-06-10T07:49:45;3.90;;;2.95;;
22097;SDS011;11215;51.938;8.464;2023-06-10T07:52:11;3.38;;;2.60;;
22097;SDS011;11215;51.938;8.464;2023-06-10T07:54:36;4.00;;;2.40;;
22097;SDS011;11215;51.938;8.464;2023-06-10T07:57:02;6.07;;;2.78;;
22097;SDS011;11215;51.938;8.464;2023-06-10T07:59:28;4.90;;;3.20;;
22097;SDS011;11215;51.938;8.464;2023-06-10T08:01:54;4.68;;;3.53;;
22097;SDS011;11215;51.938;8.464;2023-06-10T08:04:20;4.70;;;3.20;;
22097;SDS011;11215;51.938;8.464;2023-06-10T08:06:46;4.85;;;3.25;;
22097;SDS011;11215;51.938;8.464;2023-06-10T08:09:11;4.88;;;2.95;;
22097;SDS011;11215;51.938;8.464;2023-06-10T08:11:37;5.38;;;3.35;;
22097;SDS011;11215;51.938;8.464;2023-06-10T08:14:03;5.75;;;3.47;;
22097;SDS011;11215;51.938;8.464;2023-06-10T08:16:29;3.80;;;3.22;;
22097;SDS011;11215;51.938;8.464;2023-06-10T08:18:55;6.03;;;3.05;;
22097;SDS011;11215;51.938;8.464;2023-06-10T08:21:21;4.22;;;3.05;;
22097;SDS011;11215;51.938;8.464;2023-06-10T08:23:47;3.97;;;3.40;;
22097;SDS011;11215;51.938;8.464;2023-06-10T08:26:12;4.82;;;3.38;;
22097;SDS011;11215;51.938;8.464;2023-06-10T08:28:38;3.72;;;3.20;;
22097;SDS011;11215;51.938;8.464;2023-06-10T08:31:04;3.40;;;3.10;;
22097;SDS011;11215;51.938;8.464;2023-06-10T08:33:30;5.18;;;3.50;;
22097;SDS011;11215;51.938;8.464;2023-06-10T08:35:56;3.60;;;3.30;;
22097;SDS011;11215;51.938;8.464;2023-06-10T08:38:21;7.68;;;3.33;;
22097;SDS011;11215;51.938;8.464;2023-06-10T08:40:47;3.67;;;3.38;;
22097;SDS011;11215;51.938;8.464;2023-06-10T08:43:17;5.93;;;3.50;;
22097;SDS011;11215;51.938;8.464;2023-06-10T08:45:55;5.57;;;2.97;;
22097;SDS011;11215;51.938;8.464;2023-06-10T08:48:26;4.50;;;3.30;;
22097;SDS011;11215;51.938;8.464;2023-06-10T08:50:55;5.82;;;3.70;;
22097;SDS011;11215;51.938;8.464;2023-06-10T08:53:22;4.22;;;3.35;;
22097;SDS011;11215;51.938;8.464;2023-06-10T08:55:51;3.90;;;3.38;;
22097;SDS011;11215;51.938;8.464;2023-06-10T08:58:18;6.35;;;3.92;;
22097;SDS011;11215;51.938;8.464;2023-06-10T09:00:45;3.78;;;3.38;;
22097;SDS011;11215;51.938;8.464;2023-06-10T09:03:12;5.30;;;3.60;;
22097;SDS011;11215;51.938;8.464;2023-06-10T09:05:38;3.88;;;3.47;;
22097;SDS011;11215;51.938;8.464;2023-06-10T09:08:07;5.15;;;3.78;;
22097;SDS011;11215;51.938;8.464;2023-06-10T09:10:34;4.93;;;4.00;;
22097;SDS011;11215;51.938;8.464;2023-06-10T09:13:00;6.32;;;3.35;;
22097;SDS011;11215;51.938;8.464;2023-06-10T09:15:25;6.40;;;3.75;;
22097;SDS011;11215;51.938;8.464;2023-06-10T09:17:52;4.82;;;3.60;;
22097;SDS011;11215;51.938;8.464;2023-06-10T09:20:18;3.63;;;3.20;;
22097;SDS011;11215;51.938;8.464;2023-06-10T09:22:44;4.25;;;3.70;;
22097;SDS011;11215;51.938;8.464;2023-06-10T09:25:10;4.47;;;3.50;;
22097;SDS011;11215;51.938;8.464;2023-06-10T09:27:48;5.88;;;3.67;;
22097;SDS011;11215;51.938;8.464;2023-06-10T09:30:34;4.60;;;3.30;;
22097;SDS011;11215;51.938;8.464;2023-06-10T09:33:01;5.88;;;3.47;;
22097;SDS011;11215;51.938;8.464;2023-06-10T09:35:34;3.72;;;3.40;;
22097;SDS011;11215;51.938;8.464;2023-06-10T09:38:00;4.47;;;3.67;;
22097;SDS011;11215;51.938;8.464;2023-06-10T09:40:27;4.35;;;3.70;;
22097;SDS011;11215;51.938;8.464;2023-06-10T09:42:55;5.55;;;3.90;;
22097;SDS011;11215;51.938;8.464;2023-06-10T09:45:31;4.18;;;3.60;;
22097;SDS011;11215;51.938;8.464;2023-06-10T09:47:58;4.22;;;3.42;;
22097;SDS011;11215;51.938;8.464;2023-06-10T09:50:24;4.05;;;3.47;;
22097;SDS011;11215;51.938;8.464;2023-06-10T09:52:50;5.72;;;3.42;;
22097;SDS011;11215;51.938;8.464;2023-06-10T09:55:17;6.40;;;3.92;;
22097;SDS011;11215;51.938;8.464;2023-06-10T09:57:43;5.10;;;4.20;;
22097;SDS011;11215;51.938;8.464;2023-06-10T10:00:13;5.32;;;3.72;;
22097;SDS011;11215;51.938;8.464;2023-06-10T10:02:46;6.22;;;4.15;;
22097;SDS011;11215;51.938;8.464;2023-06-10T10:05:14;4.60;;;3.70;;
22097;SDS011;11215;51.938;8.464;2023-06-10T10:07:40;4.57;;;3.72;;
22097;SDS011;11215;51.938;8.464;2023-06-10T10:10:07;4.78;;;4.07;;
22097;SDS011;11215;51.938;8.464;2023-06-10T10:12:35;5.13;;;3.47;;
22097;SDS011;11215;51.938;8.464;2023-06-10T10:15:02;4.07;;;3.50;;
22097;SDS011;11215;51.938;8.464;2023-06-10T10:17:30;4.53;;;4.00;;
22097;SDS011;11215;51.938;8.464;2023-06-10T10:20:03;5.10;;;4.40;;
22097;SDS011;11215;51.938;8.464;2023-06-10T10:22:32;4.15;;;3.63;;
22097;SDS011;11215;51.938;8.464;2023-06-10T10:25:05;4.53;;;4.07;;
22097;SDS011;11215;51.938;8.464;2023-06-10T10:30:07;5.65;;;3.95;;
22097;SDS011;11215;51.938;8.464;2023-06-10T10:33:19;4.75;;;4.30;;
22097;SDS011;11215;51.938;8.464;2023-06-10T10:35:30;6.63;;;4.90;;
22097;SDS011;11215;51.938;8.464;2023-06-10T10:37:58;4.30;;;3.75;;
22097;SDS011;11215;51.938;8.464;2023-06-10T10:40:25;6.22;;;4.20;;
22097;SDS011;11215;51.938;8.464;2023-06-10T10:42:55;4.78;;;4.20;;
22097;SDS011;11215;51.938;8.464;2023-06-10T10:45:22;6.68;;;4.35;;
22097;SDS011;11215;51.938;8.464;2023-06-10T10:47:57;6.13;;;4.28;;
22097;SDS011;11215;51.938;8.464;2023-06-10T10:50:23;5.25;;;4.75;;
22097;SDS011;11215;51.938;8.464;2023-06-10T10:52:59;4.72;;;4.22;;
22097;SDS011;11215;51.938;8.464;2023-06-10T10:55:27;5.25;;;4.20;;
22097;SDS011;11215;51.938;8.464;2023-06-10T10:57:54;5.53;;;4.32;;
22097;SDS011;11215;51.938;8.464;2023-06-10T11:00:25;8.95;;;4.95;;
22097;SDS011;11215;51.938;8.464;2023-06-10T11:02:52;4.88;;;4.15;;
22097;SDS011;11215;51.938;8.464;2023-06-10T11:05:20;5.18;;;4.25;;
22097;SDS011;11215;51.938;8.464;2023-06-10T11:08:07;4.97;;;4.28;;
22097;SDS011;11215;51.938;8.464;2023-06-10T11:10:41;6.82;;;4.05;;
22097;SDS011;11215;51.938;8.464;2023-06-10T11:13:16;4.57;;;4.18;;
22097;SDS011;11215;51.938;8.464;2023-06-10T11:15:46;4.70;;;4.25;;
22097;SDS011;11215;51.938;8.464;2023-06-10T11:28:40;6.07;;;4.00;;
22097;SDS011;11215;51.938;8.464;2023-06-10T11:31:08;7.03;;;4.55;;
22097;SDS011;11215;51.938;8.464;2023-06-10T11:33:43;7.30;;;4.50;;
22097;SDS011;11215;51.938;8.464;2023-06-10T11:36:09;5.78;;;5.15;;
22097;SDS011;11215;51.938;8.464;2023-06-10T11:38:35;7.20;;;4.55;;
22097;SDS011;11215;51.938;8.464;2023-06-10T11:41:02;6.15;;;4.72;;
22097;SDS011;11215;51.938;8.464;2023-06-10T11:43:28;5.00;;;4.55;;
22097;SDS011;11215;51.938;8.464;2023-06-10T11:45:55;4.45;;;4.05;;
22097;SDS011;11215;51.938;8.464;2023-06-10T11:48:21;5.03;;;4.57;;
22097;SDS011;11215;51.938;8.464;2023-06-10T11:50:47;5.30;;;4.63;;
22097;SDS011;11215;51.938;8.464;2023-06-10T11:53:13;4.97;;;4.55;;
22097;SDS011;11215;51.938;8.464;2023-06-10T11:55:43;5.10;;;4.60;;
22097;SDS011;11215;51.938;8.464;2023-06-10T12:03:16;4.97;;;4.30;;
22097;SDS011;11215;51.938;8.464;2023-06-10T12:06:03;5.25;;;4.75;;
22097;SDS011;11215;51.938;8.464;2023-06-10T12:08:30;5.00;;;4.60;;
22097;SDS011;11215;51.938;8.464;2023-06-10T12:10:56;5.80;;;5.30;;
22097;SDS011;11215;51.938;8.464;2023-06-10T12:13:23;5.63;;;4.70;;
22097;SDS011;11215;51.938;8.464;2023-06-10T12:15:51;5.40;;;4.90;;
22097;SDS011;11215;51.938;8.464;2023-06-10T12:18:21;6.97;;;4.63;;
22097;SDS011;11215;51.938;8.464;2023-06-10T12:20:48;5.03;;;4.50;;
22097;SDS011;11215;51.938;8.464;2023-06-10T12:23:15;5.68;;;5.07;;
22097;SDS011;11215;51.938;8.464;2023-06-10T12:25:52;6.07;;;5.03;;
22097;SDS011;11215;51.938;8.464;2023-06-10T12:28:22;5.57;;;5.07;;
22097;SDS011;11215;51.938;8.464;2023-06-10T12:30:49;5.85;;;4.97;;
22097;SDS011;11215;51.938;8.464;2023-06-10T12:33:16;5.88;;;4.68;;
22097;SDS011;11215;51.938;8.464;2023-06-10T12:35:49;6.40;;;4.47;;
22097;SDS011;11215;51.938;8.464;2023-06-10T12:38:25;5.85;;;4.68;;
22097;SDS011;11215;51.938;8.464;2023-06-10T12:40:52;5.50;;;4.90;;
22097;SDS011;11215;51.938;8.464;2023-06-10T12:43:24;5.47;;;4.63;;
22097;SDS011;11215;51.938;8.464;2023-06-10T12:45:50;6.82;;;5.03;;
22097;SDS011;11215;51.938;8.464;2023-06-10T12:48:20;6.28;;;4.90;;
22097;SDS011;11215;51.938;8.464;2023-06-10T12:50:51;6.35;;;4.75;;
22097;SDS011;11215;51.938;8.464;2023-06-10T12:53:21;5.32;;;4.72;;
22097;SDS011;11215;51.938;8.464;2023-06-10T12:55:48;5.97;;;4.78;;
22097;SDS011;11215;51.938;8.464;2023-06-10T12:58:14;5.70;;;5.05;;
22097;SDS011;11215;51.938;8.464;2023-06-10T13:00:40;5.28;;;4.78;;
22097;SDS011;11215;51.938;8.464;2023-06-10T13:03:07;7.93;;;4.82;;
22097;SDS011;11215;51.938;8.464;2023-06-10T13:05:34;5.07;;;4.63;;
22097;SDS011;11215;51.938;8.464;2023-06-10T13:08:03;6.57;;;5.05;;
22097;SDS011;11215;51.938;8.464;2023-06-10T13:10:35;6.05;;;4.60;;
22097;SDS011;11215;51.938;8.464;2023-06-10T13:13:02;5.40;;;4.47;;
22097;SDS011;11215;51.938;8.464;2023-06-10T13:15:30;5.10;;;4.60;;
22097;SDS011;11215;51.938;8.464;2023-06-10T13:17:57;5.25;;;4.50;;
22097;SDS011;11215;51.938;8.464;2023-06-10T13:20:23;6.03;;;4.75;;
22097;SDS011;11215;51.938;8.464;2023-06-10T13:22:49;5.13;;;4.60;;
22097;SDS011;11215;51.938;8.464;2023-06-10T13:25:15;7.38;;;4.88;;
22097;SDS011;11215;51.938;8.464;2023-06-10T13:27:41;5.93;;;4.25;;
22097;SDS011;11215;51.938;8.464;2023-06-10T13:30:07;7.15;;;4.95;;
22097;SDS011;11215;51.938;8.464;2023-06-10T13:32:34;4.82;;;4.43;;
22097;SDS011;11215;51.938;8.464;2023-06-10T13:35:03;5.53;;;5.03;;
22097;SDS011;11215;51.938;8.464;2023-06-10T13:37:29;6.70;;;5.32;;
22097;SDS011;11215;51.938;8.464;2023-06-10T13:39:55;5.72;;;5.18;;
22097;SDS011;11215;51.938;8.464;2023-06-10T13:42:21;5.72;;;5.13;;
22097;SDS011;11215;51.938;8.464;2023-06-10T13:44:47;6.63;;;4.47;;
22097;SDS011;11215;51.938;8.464;2023-06-10T13:47:13;6.40;;;5.03;;
22097;SDS011;11215;51.938;8.464;2023-06-10T13:49:39;6.47;;;5.20;;
22097;SDS011;11215;51.938;8.464;2023-06-10T13:52:05;5.72;;;4.70;;
22097;SDS011;11215;51.938;8.464;2023-06-10T13:54:31;5.70;;;5.10;;
22097;SDS011;11215;51.938;8.464;2023-06-10T13:56:57;5.82;;;5.32;;
22097;SDS011;11215;51.938;8.464;2023-06-10T13:59:24;5.32;;;4.82;;
22097;SDS011;11215;51.938;8.464;2023-06-10T14:01:49;5.53;;;4.95;;
22097;SDS011;11215;51.938;8.464;2023-06-10T14:04:15;5.13;;;4.72;;
22097;SDS011;11215;51.938;8.464;2023-06-10T14:06:41;6.00;;;5.20;;
22097;SDS011;11215;51.938;8.464;2023-06-10T14:09:06;7.97;;;5.43;;
22097;SDS011;11215;51.938;8.464;2023-06-10T14:11:32;6.05;;;5.55;;
22097;SDS011;11215;51.938;8.464;2023-06-10T14:13:58;5.55;;;5.15;;
22097;SDS011;11215;51.938;8.464;2023-06-10T14:16:25;7.50;;;5.25;;
22097;SDS011;11215;51.938;8.464;2023-06-10T14:18:51;5.00;;;4.57;;
22097;SDS011;11215;51.938;8.464;2023-06-10T14:21:17;5.90;;;5.38;;
22097;SDS011;11215;51.938;8.464;2023-06-10T14:23:43;5.70;;;5.20;;
22097;SDS011;11215;51.938;8.464;2023-06-10T14:26:09;6.35;;;5.85;;
22097;SDS011;11215;51.938;8.464;2023-06-10T14:28:35;6.82;;;5.57;;
22097;SDS011;11215;51.938;8.464;2023-06-10T14:31:00;6.20;;;5.60;;
22097;SDS011;11215;51.938;8.464;2023-06-10T14:33:26;6.30;;;5.70;;
22097;SDS011;11215;51.938;8.464;2023-06-10T14:35:52;5.50;;;4.95;;
22097;SDS011;11215;51.938;8.464;2023-06-10T14:38:18;6.13;;;5.63;;
22097;SDS011;11215;51.938;8.464;2023-06-10T14:40:44;7.28;;;5.30;;
22097;SDS011;11215;51.938;8.464;2023-06-10T14:43:09;7.18;;;5.75;;
22097;SDS011;11215;51.938;8.464;2023-06-10T14:45:38;8.05;;;5.30;;
22097;SDS011;11215;51.938;8.464;2023-06-10T14:48:05;7.32;;;5.70;;
22097;SDS011;11215;51.938;8.464;2023-06-10T14:50:31;6.43;;;5.85;;
22097;SDS011;11215;51.938;8.464;2023-06-10T14:52:58;5.88;;;5.28;;
22097;SDS011;11215;51.938;8.464;2023-06-10T14:55:24;6.10;;;5.57;;
22097;SDS011;11215;51.938;8.464;2023-06-10T14:57:49;6.35;;;5.72;;
22097;SDS011;11215;51.938;8.464;2023-06-10T15:00:15;6.72;;;5.93;;
22097;SDS011;11215;51.938;8.464;2023-06-10T15:02:44;6.80;;;6.05;;
22097;SDS011;11215;51.938;8.464;2023-06-10T15:05:12;7.07;;;5.72;;
22097;SDS011;11215;51.938;8.464;2023-06-10T15:07:40;6.90;;;6.10;;
22097;SDS011;11215;51.938;8.464;2023-06-10T15:10:06;6.10;;;5.60;;